ESPA/LLA METAR and TAF weather

Enter ICAO airport designator
Station Type Date Time Source
ESPA METAR 2020/07/07 07:50 UTC NOAA

ESPA 070750Z 15008KT 9999 SCT016 BKN026 OVC054 14/11 Q0995


Station Type Date Time Source
ESPA Decoded METAR 2020/07/07 07:50 UTC NOAA

Lulea / Kallax, Sweden (ESPA) 65-33N 022-08E 34M
Jul 07, 2020 - 03:50 AM EDT / 2020.07.07 0750 UTC
Wind: from the SSE (150 degrees) at 9 MPH (8 KT):0
Visibility: greater than 7 mile(s):0
Sky conditions: overcast
Temperature: 57 F (14 C)
Dew Point: 51 F (11 C)
Relative Humidity: 82%
Pressure (altimeter): 29.38 in. Hg (0995 hPa)
ob: ESPA 070750Z 15008KT 9999 SCT016 BKN026 OVC054 14/11 Q0995
cycle: 8

Station Type Date Time Source
ESPA TAF 2019/02/04 06:27 UTC NOAA

TAF TAF ESPA 040820Z 0406/0418 01010KT 2000 SN VV020
TEMPO 0409/0414 1000 +SN DRSN VV009
BECMG 0414/0416 32010KT 5000 -SN VV030
RMK MIL

Example: see airport list